Time;durP1;ratioP1;P1;durP2;ratioP2;P2;SDS_P1;SDS_P2;PMS_P1;PMS_P2;Temp;Humidity;BMP_temperature;BMP_pressure;BME280_temperature;BME280_humidity;BME280_pressure;Samples;Min_cycle;Max_cycle;Signal;HPM_P1;HPM_P2
2023/10/26 00:01:34;;;;;;;19.00;11.07;;;10.20;99.90;;;10.08;100.00;97767.13;5000401;28;20392;-80
2023/10/26 00:04:00;;;;;;;16.55;11.60;;;10.20;99.90;;;10.08;100.00;97769.88;5034486;28;20406;-80
2023/10/26 00:06:25;;;;;;;19.52;11.75;;;10.20;99.90;;;10.14;100.00;97774.16;5023864;28;20033;-80
2023/10/26 00:08:51;;;;;;;19.92;12.68;;;10.20;99.90;;;10.08;100.00;97767.94;5014052;28;20050;-81
2023/10/26 00:11:17;;;;;;;22.75;13.55;;;10.20;99.90;;;10.16;100.00;97787.47;5028186;28;20117;-80
2023/10/26 00:13:43;;;;;;;22.77;13.60;;;10.20;99.90;;;10.14;100.00;97787.78;5025796;28;20409;-80
2023/10/26 00:16:08;;;;;;;26.48;14.30;;;10.20;99.90;;;10.16;100.00;97791.03;5022180;28;20037;-81
2023/10/26 00:18:34;;;;;;;24.00;13.75;;;10.20;99.90;;;10.13;100.00;97785.34;5021378;28;20033;-81
2023/10/26 00:21:01;;;;;;;28.27;14.98;;;10.30;99.90;;;10.12;100.00;97783.72;5020400;28;20044;-80
2023/10/26 00:23:27;;;;;;;25.35;14.88;;;10.20;99.90;;;10.17;100.00;97797.28;5014234;28;20034;-80
2023/10/26 00:25:53;;;;;;;25.30;15.68;;;10.20;99.90;;;10.14;100.00;97793.22;5025371;28;20509;-80
2023/10/26 00:28:20;;;;;;;25.40;15.90;;;10.20;99.90;;;10.14;100.00;97792.41;5018401;28;20061;-81
2023/10/26 00:30:46;;;;;;;24.08;15.30;;;10.20;99.90;;;10.14;100.00;97789.69;5046099;28;20064;-81
2023/10/26 00:33:12;;;;;;;23.17;14.80;;;10.30;99.90;;;10.08;100.00;97797.91;5021647;28;20444;-81
2023/10/26 00:35:38;;;;;;;26.52;15.10;;;10.30;99.90;;;10.08;100.00;97783.47;5022577;28;20045;-80
2023/10/26 00:38:04;;;;;;;24.40;15.40;;;10.20;99.90;;;10.06;100.00;97791.09;5008413;28;20045;-80
2023/10/26 00:40:30;;;;;;;24.05;15.52;;;10.20;99.90;;;10.11;100.00;97787.53;5027156;28;20034;-80
2023/10/26 00:43:06;;;;;;;26.42;15.95;;;10.30;99.90;;;10.11;100.00;97777.47;5015078;28;20551;-80
2023/10/26 00:45:35;;;;;;;26.42;15.75;;;10.30;99.90;;;10.13;100.00;97782.59;5014301;28;20026;-80
2023/10/26 00:48:05;;;;;;;24.48;15.18;;;10.30;99.90;;;10.18;100.00;97785.28;5031528;28;20037;-81
2023/10/26 00:50:31;;;;;;;26.80;16.20;;;10.20;99.90;;;10.20;100.00;97794.00;5032649;28;20049;-81
2023/10/26 00:52:57;;;;;;;22.67;15.10;;;10.30;99.90;;;10.16;100.00;97791.03;5021821;28;20110;-81
2023/10/26 00:55:25;;;;;;;23.10;15.00;;;10.20;99.90;;;10.15;100.00;97788.59;5025000;28;20096;-80
2023/10/26 00:57:51;;;;;;;22.02;14.25;;;10.20;99.90;;;10.16;100.00;97792.94;5027653;28;20056;-81
2023/10/26 01:00:18;;;;;;;21.70;14.63;;;10.20;99.90;;;10.18;100.00;97802.47;5035874;28;20055;-81
2023/10/26 01:02:44;;;;;;;24.17;14.98;;;10.20;99.90;;;10.18;100.00;97805.19;5018924;28;20038;-81
2023/10/26 01:05:09;;;;;;;25.00;15.38;;;10.20;99.90;;;10.14;100.00;97798.69;5026198;28;20037;-81
2023/10/26 01:07:36;;;;;;;21.85;14.10;;;10.20;99.90;;;10.16;100.00;97807.38;5025382;28;20056;-81
2023/10/26 01:10:02;;;;;;;21.15;14.43;;;10.20;99.90;;;10.16;100.00;97814.72;5016923;28;20091;-81
2023/10/26 01:12:28;;;;;;;24.40;14.60;;;10.20;99.90;;;10.12;100.00;97817.22;5021457;28;20088;-81
2023/10/26 01:14:54;;;;;;;20.25;13.48;;;10.20;99.90;;;10.12;100.00;97811.78;5008431;28;20068;-81
2023/10/26 01:17:20;;;;;;;21.17;13.30;;;10.20;99.90;;;10.12;100.00;97811.78;5024345;28;20037;-81
2023/10/26 01:19:49;;;;;;;25.35;13.35;;;10.20;99.90;;;10.06;100.00;97818.34;5019274;28;20042;-80
2023/10/26 01:22:15;;;;;;;19.63;12.40;;;10.20;99.90;;;10.07;100.00;97825.41;5031399;28;20392;-81
2023/10/26 01:24:41;;;;;;;19.85;13.27;;;10.20;99.90;;;10.07;100.00;97819.97;5030969;28;20037;-80
2023/10/26 01:27:06;;;;;;;18.80;12.88;;;10.20;99.90;;;10.12;100.00;97814.50;5013415;28;20077;-80
2023/10/26 01:29:33;;;;;;;17.08;12.45;;;10.20;99.90;;;10.16;100.00;97812.00;5031658;28;20037;-80
2023/10/26 01:31:59;;;;;;;17.63;12.02;;;10.20;99.90;;;10.22;100.00;97821.78;5026472;28;20041;-81
2023/10/26 01:34:25;;;;;;;17.95;12.48;;;10.20;99.90;;;10.19;100.00;97823.16;5028412;28;20036;-81
2023/10/26 01:36:51;;;;;;;20.25;12.18;;;10.20;99.90;;;10.18;100.00;97828.88;5028581;28;20045;-81
2023/10/26 01:39:18;;;;;;;17.42;11.45;;;10.20;99.90;;;10.23;100.00;97828.88;5039847;28;20038;-80
2023/10/26 01:41:46;;;;;;;17.90;11.47;;;10.20;99.90;;;10.23;100.00;97839.75;5016073;28;20134;-80
2023/10/26 01:44:13;;;;;;;18.77;11.38;;;10.20;99.90;;;10.23;100.00;97839.75;5017485;28;20299;-80
2023/10/26 01:46:39;;;;;;;17.83;11.23;;;10.20;99.90;;;10.17;100.00;97843.59;5025017;28;20076;-81
2023/10/26 01:49:05;;;;;;;16.73;11.18;;;10.20;99.90;;;10.18;100.00;97842.50;5002598;28;20063;-80
2023/10/26 01:51:31;;;;;;;16.98;11.10;;;10.20;99.90;;;10.21;100.00;97847.38;5028872;28;20473;-80
2023/10/26 01:53:57;;;;;;;16.15;11.23;;;10.20;99.90;;;10.12;100.00;97844.47;5026503;28;20095;-80
2023/10/26 01:56:23;;;;;;;15.65;10.88;;;10.20;99.90;;;10.04;100.00;97840.41;5024626;28;20072;-80
2023/10/26 01:58:49;;;;;;;14.50;10.07;;;10.20;99.90;;;10.14;100.00;97846.88;5014211;28;20048;-80
2023/10/26 02:01:16;;;;;;;15.82;11.00;;;10.10;99.90;;;10.17;100.00;97833.53;5011351;28;20033;-80
2023/10/26 02:03:41;;;;;;;17.15;11.70;;;10.20;99.90;;;10.20;100.00;97843.03;5016449;28;20034;-80
2023/10/26 02:06:09;;;;;;;16.30;11.45;;;10.20;99.90;;;10.20;100.00;97845.75;5011369;28;20030;-80
2023/10/26 02:08:35;;;;;;;16.73;11.50;;;10.20;99.90;;;10.16;100.00;97850.97;5033271;28;20034;-80
2023/10/26 02:11:01;;;;;;;16.02;11.45;;;10.20;99.90;;;10.17;100.00;97847.16;5024239;28;20046;-80
2023/10/26 02:13:27;;;;;;;17.42;11.75;;;10.20;99.90;;;10.18;100.00;97847.94;5015748;28;20029;-80
2023/10/26 02:15:53;;;;;;;17.70;12.38;;;10.20;99.90;;;10.16;100.00;97848.25;5010994;28;20045;-80
2023/10/26 02:18:19;;;;;;;18.25;12.93;;;10.20;99.90;;;10.16;100.00;97850.97;4994995;28;20034;-80
2023/10/26 02:20:44;;;;;;;21.23;14.07;;;10.20;99.90;;;10.14;100.00;97855.06;5027541;28;20083;-80
2023/10/26 02:23:10;;;;;;;21.98;14.43;;;10.20;99.90;;;10.12;100.00;97855.38;5024106;28;20363;-80
2023/10/26 02:25:36;;;;;;;23.70;15.85;;;10.20;99.90;;;10.12;100.00;97851.81;5041635;28;20489;-80
2023/10/26 02:28:02;;;;;;;23.70;15.52;;;10.10;99.90;;;10.10;100.00;97857.56;5027455;28;20038;-80
2023/10/26 02:30:28;;;;;;;28.02;16.45;;;10.10;99.90;;;10.11;100.00;97859.19;5032153;28;20034;-80
2023/10/26 02:32:54;;;;;;;24.52;16.20;;;10.10;99.90;;;10.14;100.00;97855.88;5012339;28;20089;-80
2023/10/26 02:35:20;;;;;;;25.67;16.67;;;10.20;99.90;;;10.12;100.00;97855.38;5030691;28;20068;-80
2023/10/26 02:37:48;;;;;;;25.40;16.43;;;10.20;99.90;;;10.17;100.00;97868.94;5029798;28;20040;-80
2023/10/26 02:40:16;;;;;;;27.00;17.30;;;10.20;99.90;;;10.17;100.00;97868.94;5030229;28;20045;-80
2023/10/26 02:42:41;;;;;;;29.10;16.40;;;10.10;99.90;;;10.12;100.00;97866.25;5027459;28;20029;-80
2023/10/26 02:45:08;;;;;;;29.27;17.88;;;10.20;99.90;;;10.18;100.00;97875.19;5023425;28;20034;-80
2023/10/26 02:47:34;;;;;;;26.53;17.17;;;10.10;99.90;;;10.17;100.00;97874.41;5027622;28;20033;-79
2023/10/26 02:50:00;;;;;;;26.80;16.17;;;10.10;99.90;;;10.14;100.00;97879.59;5019581;28;20037;-80
2023/10/26 02:52:26;;;;;;;27.38;16.10;;;10.10;99.90;;;10.17;100.00;97879.00;5025204;28;20041;-80
2023/10/26 02:54:51;;;;;;;25.10;16.15;;;10.20;99.90;;;10.14;100.00;97869.50;5029470;28;20475;-80
2023/10/26 02:57:17;;;;;;;28.77;16.38;;;10.20;99.90;;;10.17;100.00;97881.75;5013419;28;20033;-80
2023/10/26 02:59:43;;;;;;;30.23;15.10;;;10.20;99.90;;;10.13;100.00;97877.94;5010907;28;20084;-80
2023/10/26 03:02:09;;;;;;;30.33;16.30;;;10.20;99.90;;;10.14;100.00;97880.41;5010663;28;20037;-80
2023/10/26 03:04:35;;;;;;;23.30;15.15;;;10.20;99.90;;;10.15;100.00;97882.03;5020861;28;20052;-80
2023/10/26 03:07:01;;;;;;;27.73;15.60;;;10.20;99.90;;;10.18;100.00;97878.75;5026398;28;20045;-80
2023/10/26 03:09:28;;;;;;;30.15;14.85;;;10.10;99.90;;;10.18;100.00;97889.66;5030591;28;20385;-80
2023/10/26 03:11:55;;;;;;;31.83;16.15;;;10.20;99.90;;;10.16;100.00;97883.66;5038836;28;20044;-80
2023/10/26 03:14:21;;;;;;;25.30;15.50;;;10.20;99.90;;;10.16;100.00;97889.13;5045434;28;20034;-80
2023/10/26 03:16:48;;;;;;;27.73;16.08;;;10.20;99.90;;;10.15;100.00;97882.03;5023376;28;20430;-80
2023/10/26 03:19:14;;;;;;;39.37;16.10;;;10.20;99.90;;;10.12;100.00;97887.22;5027380;28;20042;-80
2023/10/26 03:21:40;;;;;;;26.88;16.08;;;10.20;99.90;;;10.16;100.00;97883.66;5026154;28;20052;-80
2023/10/26 03:24:06;;;;;;;24.17;15.65;;;10.10;99.90;;;10.18;100.00;97881.47;5023747;28;20485;-80
2023/10/26 03:26:32;;;;;;;26.65;14.65;;;10.10;99.90;;;10.20;100.00;97890.16;5027725;28;20033;-80
2023/10/26 03:28:58;;;;;;;24.27;15.20;;;10.20;99.90;;;10.18;100.00;97889.66;5016682;28;20052;-80
2023/10/26 03:31:24;;;;;;;24.85;14.90;;;10.20;99.90;;;10.19;100.00;97891.28;5025647;28;20037;-80
2023/10/26 03:33:50;;;;;;;25.60;14.98;;;10.10;99.90;;;10.19;100.00;97904.91;5032746;28;20034;-80
2023/10/26 03:36:18;;;;;;;24.25;15.23;;;10.10;99.90;;;10.15;100.00;97895.66;5040950;28;20104;-80
2023/10/26 03:38:45;;;;;;;27.40;13.45;;;10.10;99.90;;;10.20;100.00;97905.69;5024860;28;20143;-80
2023/10/26 03:41:12;;;;;;;21.58;13.05;;;10.10;99.90;;;10.17;100.00;97911.72;5027037;28;20365;-80
2023/10/26 03:43:38;;;;;;;22.95;13.25;;;10.10;99.90;;;10.16;100.00;97915.53;5023692;28;20052;-80
2023/10/26 03:46:05;;;;;;;25.23;13.90;;;10.10;99.90;;;10.17;100.00;97915.25;5037990;28;20477;-80
2023/10/26 03:48:32;;;;;;;24.60;14.18;;;10.10;99.90;;;10.19;100.00;97921.25;5026315;28;20040;-80
2023/10/26 03:51:05;;;;;;;26.73;14.05;;;10.10;99.90;;;10.19;100.00;97923.13;5022548;28;20029;-80
2023/10/26 03:53:31;;;;;;;24.77;13.13;;;10.10;99.90;;;10.17;100.00;97922.59;5023190;28;20167;-80
2023/10/26 03:55:57;;;;;;;21.85;13.00;;;10.10;99.90;;;10.17;100.00;97931.59;5022009;28;20541;-80
2023/10/26 03:58:23;;;;;;;22.45;13.15;;;10.10;99.90;;;10.17;100.00;97925.31;5027877;28;20041;-80
2023/10/26 04:00:51;;;;;;;22.23;13.40;;;10.10;99.90;;;10.16;100.00;97929.97;5009194;28;20038;-81
2023/10/26 04:03:17;;;;;;;24.10;13.23;;;10.10;99.90;;;10.15;100.00;97931.06;4997964;28;20079;-80
2023/10/26 04:05:56;;;;;;;23.45;13.43;;;10.10;99.90;;;10.10;100.00;97933.84;5026751;28;20077;-80
2023/10/26 04:08:42;;;;;;;23.92;12.65;;;10.10;99.90;;;10.07;100.00;97939.81;5028695;28;20033;-81
2023/10/26 04:11:08;;;;;;;22.38;12.85;;;10.00;99.90;;;10.06;100.00;97939.00;5023455;28;20485;-81
2023/10/26 04:13:35;;;;;;;21.73;12.43;;;10.00;99.90;;;10.05;100.00;97936.56;5026957;28;20030;-81
2023/10/26 04:16:01;;;;;;;20.38;11.35;;;10.00;99.90;;;10.06;100.00;97932.72;5044874;28;20041;-81
2023/10/26 04:18:27;;;;;;;18.05;11.23;;;10.00;99.90;;;10.09;100.00;97937.66;5040726;28;20117;-80
2023/10/26 04:20:53;;;;;;;18.33;10.93;;;10.00;99.90;;;10.08;100.00;97942.28;5023666;28;20119;-79
2023/10/26 04:23:19;;;;;;;18.13;10.80;;;10.00;99.90;;;10.03;100.00;97942.28;5019140;28;20040;-81
2023/10/26 04:25:45;;;;;;;17.10;10.95;;;10.00;99.90;;;10.00;100.00;97944.75;5032294;28;20056;-80
2023/10/26 04:28:11;;;;;;;14.75;9.75;;;10.00;99.90;;;10.01;100.00;97954.56;5018484;28;20494;-80
2023/10/26 04:30:36;;;;;;;16.30;10.40;;;10.00;99.90;;;9.99;100.00;97970.38;5022356;28;20041;-80
2023/10/26 04:33:02;;;;;;;15.68;10.70;;;10.00;99.90;;;9.95;100.00;97959.22;5024465;28;20047;-80
2023/10/26 04:35:28;;;;;;;16.80;10.85;;;10.00;99.90;;;9.88;100.00;97973.13;5030394;28;20042;-80
2023/10/26 04:37:54;;;;;;;16.38;10.27;;;10.00;99.90;;;9.89;100.00;97977.50;5027240;28;20503;-82
2023/10/26 04:40:20;;;;;;;15.43;9.85;;;9.90;99.90;;;9.95;100.00;97975.56;5032432;28;20063;-79
2023/10/26 04:42:45;;;;;;;16.30;10.38;;;9.90;99.90;;;9.97;100.00;97978.00;5023059;28;20049;-82
2023/10/26 04:45:11;;;;;;;17.77;11.20;;;9.90;99.90;;;9.98;100.00;97985.06;5026034;28;20040;-81
2023/10/26 04:47:37;;;;;;;18.20;11.40;;;9.90;99.90;;;9.97;100.00;97980.72;5023162;28;20029;-79
2023/10/26 04:50:04;;;;;;;19.23;11.45;;;9.90;99.90;;;9.97;100.00;97978.00;5025916;28;20030;-79
2023/10/26 04:52:29;;;;;;;18.63;11.43;;;9.90;99.90;;;9.96;100.00;97987.25;5025661;28;20049;-78
2023/10/26 04:54:55;;;;;;;18.55;11.85;;;10.00;99.90;;;9.88;100.00;97992.19;5026739;28;20042;-79
2023/10/26 04:57:21;;;;;;;20.58;12.40;;;9.90;99.90;;;9.86;100.00;97986.22;5023926;28;20743;-79
2023/10/26 04:59:46;;;;;;;20.50;12.50;;;9.90;99.90;;;9.87;100.00;97979.69;5038047;28;20052;-77
2023/10/26 05:02:12;;;;;;;23.08;13.30;;;9.90;99.90;;;9.86;100.00;97986.22;5033829;28;20033;-79
2023/10/26 05:04:38;;;;;;;22.83;12.90;;;9.90;99.90;;;9.88;100.00;97996.81;5028865;28;20492;-79
2023/10/26 05:07:04;;;;;;;20.73;12.43;;;9.90;99.90;;;9.82;100.00;97993.31;5033331;28;20489;-79
2023/10/26 05:09:30;;;;;;;20.58;13.00;;;9.80;99.90;;;9.86;100.00;97994.38;5015183;28;20096;-80
2023/10/26 05:11:56;;;;;;;21.85;12.00;;;9.80;99.90;;;9.86;100.00;97996.28;5027064;28;20034;-79
2023/10/26 05:14:21;;;;;;;20.25;12.00;;;9.90;99.90;;;9.75;100.00;97998.22;5030704;28;20045;-79
2023/10/26 05:16:47;;;;;;;19.63;12.18;;;9.80;99.90;;;9.79;100.00;98002.00;5010948;28;20042;-79
2023/10/26 05:19:13;;;;;;;17.38;11.35;;;9.80;99.90;;;9.76;100.00;97991.66;5031829;28;20057;-77
2023/10/26 05:21:38;;;;;;;16.85;11.38;;;9.80;99.90;;;9.74;100.00;97997.41;5031692;28;20041;-78
2023/10/26 05:24:05;;;;;;;18.75;11.02;;;9.80;99.90;;;9.76;100.00;97995.22;5016880;28;20041;-78
2023/10/26 05:26:30;;;;;;;16.38;10.60;;;9.80;99.90;;;9.75;100.00;97992.75;5024916;28;20083;-79
2023/10/26 05:28:56;;;;;;;16.20;10.13;;;9.80;99.90;;;9.72;100.00;97993.31;5017736;28;20034;-78
2023/10/26 05:31:22;;;;;;;16.90;10.23;;;9.80;99.90;;;9.74;100.00;97991.13;5030292;28;20687;-78
2023/10/26 05:33:47;;;;;;;14.93;9.68;;;9.80;99.90;;;9.69;100.00;97989.25;5024104;28;20048;-78
2023/10/26 05:36:13;;;;;;;14.73;9.52;;;9.80;99.90;;;9.66;100.00;98008.03;5021729;28;20041;-79
2023/10/26 05:38:39;;;;;;;12.80;8.38;;;9.80;99.90;;;9.59;100.00;97995.53;5027583;28;20042;-79
2023/10/26 05:41:05;;;;;;;13.57;8.45;;;9.80;99.90;;;9.59;100.00;98001.00;5006495;28;20045;-79
2023/10/26 05:43:31;;;;;;;12.07;7.95;;;9.80;99.90;;;9.56;100.00;97984.38;5019622;28;20045;-79
2023/10/26 05:46:03;;;;;;;11.60;7.63;;;9.80;99.90;;;9.59;100.00;97994.72;5014336;28;20041;-79
2023/10/26 05:48:31;;;;;;;10.65;7.43;;;9.80;99.90;;;9.53;100.00;97991.16;5027332;28;20029;-78
2023/10/26 05:50:57;;;;;;;11.07;7.43;;;9.80;99.90;;;9.57;100.00;97983.28;5012631;28;20573;-79
2023/10/26 05:53:23;;;;;;;11.70;7.13;;;9.80;99.90;;;9.46;100.00;97961.53;5030638;28;20073;-76
2023/10/26 05:55:59;;;;;;;12.75;7.70;;;9.80;99.90;;;9.59;100.00;97971.03;5027603;28;20083;-77
2023/10/26 05:58:26;;;;;;;9.77;7.15;;;9.80;99.90;;;9.62;100.00;97980.53;5022067;28;20029;-78
2023/10/26 06:00:52;;;;;;;9.57;6.70;;;9.80;99.90;;;9.65;100.00;97977.28;5030436;28;20065;-78
2023/10/26 06:03:18;;;;;;;9.63;6.85;;;9.80;99.90;;;9.62;100.00;97975.94;5029878;28;20060;-78
2023/10/26 06:05:43;;;;;;;10.57;6.50;;;9.80;99.90;;;9.62;100.00;97984.09;5024045;28;20415;-79
2023/10/26 06:08:10;;;;;;;10.52;6.65;;;9.80;99.90;;;9.65;100.00;97996.31;5029407;28;20492;-79
2023/10/26 06:10:37;;;;;;;9.18;6.55;;;9.70;99.90;;;9.59;100.00;97995.53;5030935;28;20044;-81
2023/10/26 06:13:03;;;;;;;11.27;7.82;;;9.80;99.90;;;9.61;100.00;97987.91;5030137;28;20052;-79
2023/10/26 06:15:28;;;;;;;10.98;7.22;;;9.80;99.90;;;9.61;100.00;97997.97;5036287;28;20470;-78
2023/10/26 06:17:54;;;;;;;10.77;7.32;;;9.80;99.90;;;9.60;100.00;97991.72;5027388;28;20064;-79
2023/10/26 06:20:22;;;;;;;10.18;6.90;;;9.70;99.90;;;9.63;100.00;98003.94;5026803;28;20034;-82
2023/10/26 06:22:47;;;;;;;9.68;6.95;;;9.80;99.90;;;9.57;100.00;98000.44;5028620;28;20041;-80
2023/10/26 06:25:13;;;;;;;10.65;7.07;;;9.70;99.90;;;9.63;100.00;98010.22;5027391;28;20388;-79
2023/10/26 06:27:39;;;;;;;10.35;7.28;;;9.70;99.90;;;9.58;100.00;98007.53;5027599;28;20033;-79
2023/10/26 06:30:07;;;;;;;10.65;7.18;;;9.70;99.90;;;9.63;100.00;98017.56;5027534;28;20455;-79
2023/10/26 06:32:32;;;;;;;10.02;7.18;;;9.70;99.90;;;9.56;100.00;98011.59;5030296;28;20456;-78
2023/10/26 06:34:58;;;;;;;10.75;7.50;;;9.70;99.90;;;9.56;100.00;98011.59;5027918;28;20050;-78
2023/10/26 06:37:24;;;;;;;10.77;7.57;;;9.70;99.90;;;9.61;100.00;98017.84;5026450;28;20044;-78
2023/10/26 06:39:50;;;;;;;10.68;7.63;;;9.70;99.90;;;9.63;100.00;98025.72;5028978;28;20401;-79
2023/10/26 06:42:15;;;;;;;11.63;7.57;;;9.80;99.90;;;9.52;100.00;98027.66;5012401;28;20115;-79
2023/10/26 06:44:41;;;;;;;11.35;7.45;;;9.80;99.90;;;9.56;100.00;98034.19;5031271;28;20027;-81
2023/10/26 06:47:07;;;;;;;11.48;7.78;;;9.80;99.90;;;9.58;100.00;98028.47;5030510;28;20373;-90
2023/10/26 06:49:33;;;;;;;11.73;7.60;;;9.80;99.90;;;9.66;100.00;98029.81;5024811;28;20041;-79
2023/10/26 06:51:58;;;;;;;10.80;7.93;;;9.80;99.90;;;9.54;100.00;98030.09;5025841;28;20026;-80
2023/10/26 06:54:24;;;;;;;11.10;7.63;;;9.80;99.90;;;9.61;100.00;98036.09;5040252;28;20053;-82
2023/10/26 06:56:50;;;;;;;10.52;7.70;;;9.80;99.90;;;9.62;100.00;98041.25;5041871;28;20034;-80
2023/10/26 06:59:15;;;;;;;11.30;7.50;;;9.80;99.90;;;9.68;100.00;98030.34;5024263;28;20037;-80
2023/10/26 07:01:41;;;;;;;10.85;7.35;;;9.80;99.90;;;9.65;100.00;98026.28;5019865;28;20383;-81
2023/10/26 07:04:07;;;;;;;10.80;7.53;;;9.80;99.90;;;9.71;100.00;98036.09;5028784;28;20049;-82
2023/10/26 07:06:33;;;;;;;11.60;7.80;;;9.90;99.90;;;9.75;100.00;98030.88;5029766;28;20034;-82
2023/10/26 07:08:58;;;;;;;10.88;7.53;;;9.90;99.90;;;9.63;100.00;98023.84;5025086;28;20385;-82
2023/10/26 07:11:24;;;;;;;12.48;7.70;;;9.90;99.90;;;9.81;100.00;98040.66;5019378;28;20033;-82
2023/10/26 07:13:50;;;;;;;13.10;7.85;;;10.00;99.90;;;9.88;100.00;98046.66;5016817;28;20045;-82
2023/10/26 07:16:15;;;;;;;11.10;7.90;;;10.00;99.90;;;9.94;100.00;98061.06;5030632;28;20033;-82
2023/10/26 07:18:41;;;;;;;11.40;7.28;;;10.00;99.90;;;9.84;100.00;98044.75;5020664;28;20528;-82
2023/10/26 07:21:08;;;;;;;10.20;7.05;;;10.10;99.90;;;9.93;100.00;98053.97;5027989;28;20563;-85
2023/10/26 07:23:35;;;;;;;11.32;7.47;;;10.10;99.90;;;9.97;100.00;98089.66;5023515;28;20068;-84
2023/10/26 07:26:02;;;;;;;9.60;6.80;;;10.00;99.90;;;9.99;100.00;98092.94;5025056;28;20509;-85
2023/10/26 07:28:28;;;;;;;9.18;6.55;;;10.00;99.90;;;9.96;100.00;98088.03;5027377;28;20033;-84
2023/10/26 07:30:54;;;;;;;8.90;6.82;;;10.00;99.90;;;10.03;100.00;98102.19;5024951;28;20041;-85
2023/10/26 07:33:19;;;;;;;10.10;7.00;;;10.00;99.90;;;9.98;100.00;98097.56;5019840;28;20052;-85
2023/10/26 07:35:55;;;;;;;9.82;6.55;;;10.10;99.90;;;10.01;100.00;98117.97;5012567;28;20085;-84
2023/10/26 07:38:24;;;;;;;8.02;5.68;;;10.10;99.90;;;10.02;100.00;98101.38;5018837;28;20029;-85
2023/10/26 07:40:54;;;;;;;8.50;6.57;;;10.10;99.90;;;10.08;100.00;98105.72;5010295;28;20052;-82
2023/10/26 07:43:26;;;;;;;7.68;5.70;;;10.20;99.90;;;10.10;100.00;98097.28;5022709;28;20065;-84
2023/10/26 07:45:52;;;;;;;7.75;5.70;;;10.20;99.90;;;10.14;100.00;98103.81;5015106;28;20095;-85
2023/10/26 07:48:18;;;;;;;8.20;6.18;;;10.30;99.90;;;10.12;100.00;98111.44;5026283;28;20033;-86
2023/10/26 07:50:44;;;;;;;9.13;6.15;;;10.30;99.90;;;10.20;100.00;98124.50;5011476;28;20092;-84
2023/10/26 07:53:09;;;;;;;6.95;5.22;;;10.30;99.90;;;10.24;100.00;98134.84;5019207;28;20053;-85
2023/10/26 07:55:35;;;;;;;7.65;5.22;;;10.30;99.90;;;10.19;100.00;98139.22;5022717;28;20052;-85
2023/10/26 07:58:03;;;;;;;7.55;5.13;;;10.30;99.90;;;10.28;100.00;98163.16;5029651;28;20033;-83
2023/10/26 08:00:29;;;;;;;6.70;5.10;;;10.40;99.90;;;10.27;100.00;98170.53;5027875;28;20128;-85
2023/10/26 08:02:56;;;;;;;6.50;4.72;;;10.30;99.90;;;10.29;100.00;98175.69;5028776;28;20144;-84
2023/10/26 08:05:22;;;;;;;5.77;4.63;;;10.30;99.90;;;10.31;100.00;98176.22;5025746;28;20034;-85
2023/10/26 08:07:48;;;;;;;5.90;4.40;;;10.30;99.90;;;10.30;100.00;98177.31;4995555;28;20303;-85
2023/10/26 08:10:14;;;;;;;5.43;4.13;;;10.40;99.90;;;10.32;100.00;98194.22;5019344;28;20045;-84
2023/10/26 08:12:40;;;;;;;5.68;4.07;;;10.40;99.90;;;10.30;100.00;98190.94;5021156;28;20512;-85
2023/10/26 08:15:07;;;;;;;5.50;4.20;;;10.40;99.90;;;10.28;100.00;98204.88;5026872;28;20041;-86
2023/10/26 08:17:35;;;;;;;5.80;4.35;;;10.40;99.90;;;10.19;100.00;98206.50;5014526;28;20042;-86
2023/10/26 08:20:06;;;;;;;5.60;4.18;;;10.30;99.90;;;10.13;100.00;98205.69;5041222;28;20184;-85
2023/10/26 08:22:33;;;;;;;6.57;4.20;;;10.30;99.90;;;10.19;100.00;98198.31;5014616;28;20030;-85
2023/10/26 08:24:59;;;;;;;5.60;4.00;;;10.30;99.90;;;10.22;100.00;98208.69;5019176;28;20048;-84
2023/10/26 08:27:25;;;;;;;4.95;3.58;;;10.30;99.90;;;10.25;100.00;98218.22;5016044;28;20034;-85
2023/10/26 08:29:51;;;;;;;5.53;3.72;;;10.30;99.90;;;10.24;100.00;98219.31;5014131;28;20061;-84
2023/10/26 08:32:18;;;;;;;4.75;3.30;;;10.30;99.90;;;10.24;100.00;98224.75;5027027;28;20048;-84
2023/10/26 08:34:47;;;;;;;6.50;3.97;;;10.30;99.90;;;10.21;100.00;98223.38;5023682;28;20191;-85
2023/10/26 08:37:13;;;;;;;5.22;3.75;;;10.30;99.90;;;10.22;100.00;98220.41;5012530;28;20116;-85
2023/10/26 08:39:40;;;;;;;5.10;3.78;;;10.30;99.90;;;10.23;100.00;98218.50;5034484;28;20509;-85
2023/10/26 08:42:06;;;;;;;4.75;3.35;;;10.30;99.90;;;10.28;100.00;98223.94;5024089;28;20409;-85
2023/10/26 08:44:32;;;;;;;6.60;3.90;;;10.40;99.90;;;10.39;100.00;98215.75;5020372;28;20048;-85
2023/10/26 08:47:11;;;;;;;5.07;3.45;;;10.50;99.90;;;10.45;100.00;98218.22;5027175;28;20045;-86
2023/10/26 08:49:39;;;;;;;4.22;3.20;;;10.50;99.90;;;10.53;100.00;98213.28;5034520;28;20750;-86
2023/10/26 08:52:05;;;;;;;;;;;10.60;99.90;;;10.55;100.00;98222.84;5022027;28;20448;-85
2023/10/26 08:54:31;;;;;;;4.47;2.97;;;10.70;99.90;;;10.65;100.00;98239.16;5038559;28;19944;-87
2023/10/26 08:57:07;;;;;;;4.00;2.65;;;10.70;99.90;;;10.57;100.00;98220.66;5019739;28;20061;-86
2023/10/26 08:59:33;;;;;;;4.53;2.67;;;10.70;99.90;;;10.57;100.00;98234.28;5014071;28;20048;-91
2023/10/26 09:01:59;;;;;;;4.72;2.50;;;10.70;99.90;;;10.70;100.00;98246.53;5030132;28;20029;-87
2023/10/26 09:04:24;;;;;;;4.25;3.05;;;10.80;99.90;;;10.74;100.00;98253.06;5029791;28;20504;-91
2023/10/26 09:06:52;;;;;;;4.07;2.85;;;10.90;99.90;;;10.62;100.00;98233.47;5030646;28;20045;-93
2023/10/26 09:09:18;;;;;;;;;;;10.90;99.90;;;10.81;100.00;98254.66;5028300;28;20033;-88
2023/10/26 09:11:48;;;;;;;4.75;2.92;;;10.90;99.90;;;10.93;100.00;98266.91;5031081;28;20407;-86
2023/10/26 09:14:21;;;;;;;3.45;2.60;;;11.00;99.90;;;11.05;100.00;98266.59;5046676;28;20042;-86
2023/10/26 09:16:49;;;;;;;4.32;2.58;;;11.10;99.90;;;11.05;100.00;98274.78;5025457;28;20048;-87
2023/10/26 09:19:19;;;;;;;3.42;2.50;;;11.30;99.90;;;10.99;100.00;98300.44;5011472;28;20402;-88
2023/10/26 09:21:56;;;;;;;3.90;2.45;;;11.20;99.90;;;11.15;100.00;98317.59;5027946;28;20038;-87
2023/10/26 09:24:29;;;;;;;4.32;2.55;;;11.30;99.90;;;11.23;100.00;98321.66;5022465;28;20037;-87
2023/10/26 09:27:03;;;;;;;4.25;2.40;;;11.40;99.90;;;11.35;100.00;98351.38;5024429;28;20059;-87
2023/10/26 09:29:40;;;;;;;3.35;2.38;;;11.50;99.90;;;11.23;100.00;98365.34;5029935;28;20052;-87
2023/10/26 09:32:07;;;;;;;3.97;2.45;;;11.40;99.90;;;11.35;100.00;98376.75;5016905;28;20084;-87
2023/10/26 09:34:40;;;;;;;2.67;2.10;;;11.40;99.90;;;11.45;100.00;98378.63;5014938;28;20072;-88
2023/10/26 09:37:10;;;;;;;3.17;2.13;;;11.50;99.90;;;11.44;100.00;98385.19;5019094;28;20498;-87
2023/10/26 09:39:38;;;;;;;2.65;1.92;;;11.60;99.90;;;11.57;100.00;98394.72;5016835;28;20073;-85
2023/10/26 09:42:09;;;;;;;4.63;2.20;;;11.60;99.90;;;11.60;100.00;98393.34;5007136;28;20029;-84
2023/10/26 09:44:36;;;;;;;2.92;1.88;;;11.70;99.90;;;11.55;100.00;98418.75;5015235;28;20038;-83
2023/10/26 09:47:03;;;;;;;4.37;1.97;;;11.70;99.90;;;11.53;100.00;98420.94;5014972;28;20084;-85
2023/10/26 09:49:30;;;;;;;2.28;1.70;;;11.70;99.90;;;11.48;100.00;98429.94;5026347;28;20029;-83
2023/10/26 09:51:56;;;;;;;4.60;1.77;;;11.60;99.90;;;11.42;100.00;98455.63;5029478;28;20053;-83
2023/10/26 09:54:31;;;;;;;2.85;1.60;;;11.60;99.90;;;11.39;100.00;98452.63;5027568;28;20394;-82
2023/10/26 09:57:25;;;;;;;2.58;1.60;;;11.60;99.90;;;11.39;100.00;98461.66;5041256;28;20508;-85
2023/10/26 09:59:53;;;;;;;2.58;1.83;;;11.60;99.90;;;11.49;100.00;98469.81;5029096;28;20072;-88
2023/10/26 10:02:20;;;;;;;3.20;1.80;;;11.60;99.90;;;11.41;100.00;98461.38;5023959;28;20037;-85
2023/10/26 10:04:47;;;;;;;2.40;1.42;;;11.70;99.90;;;11.43;100.00;98470.94;5025317;28;20052;-86
2023/10/26 10:07:18;;;;;;;3.40;1.83;;;11.60;99.90;;;11.50;100.00;98476.09;5044016;28;20566;-85